sensor_id;sensor_type;location;lat;lon;timestamp;P1;durP1;ratioP1;P2;durP2;ratioP2
38238;SDS011;24035;48.900;9.188;2022-12-07T00:01:15;8.38;;;3.03;;
38238;SDS011;24035;48.900;9.188;2022-12-07T00:03:49;6.05;;;3.25;;
38238;SDS011;24035;48.900;9.188;2022-12-07T00:06:17;6.30;;;2.75;;
38238;SDS011;24035;48.900;9.188;2022-12-07T00:08:44;8.32;;;3.50;;
38238;SDS011;24035;48.900;9.188;2022-12-07T00:11:11;5.78;;;3.20;;
38238;SDS011;24035;48.900;9.188;2022-12-07T00:13:39;7.00;;;3.60;;
38238;SDS011;24035;48.900;9.188;2022-12-07T00:16:06;7.43;;;3.30;;
38238;SDS011;24035;48.900;9.188;2022-12-07T00:18:34;7.50;;;3.50;;
38238;SDS011;24035;48.900;9.188;2022-12-07T00:21:04;6.75;;;3.17;;
38238;SDS011;24035;48.900;9.188;2022-12-07T00:23:36;8.98;;;3.08;;
38238;SDS011;24035;48.900;9.188;2022-12-07T00:26:09;5.78;;;3.30;;
38238;SDS011;24035;48.900;9.188;2022-12-07T00:28:37;7.22;;;3.08;;
38238;SDS011;24035;48.900;9.188;2022-12-07T00:31:07;6.25;;;2.97;;
38238;SDS011;24035;48.900;9.188;2022-12-07T00:33:34;7.47;;;3.15;;
38238;SDS011;24035;48.900;9.188;2022-12-07T00:36:01;5.53;;;2.95;;
38238;SDS011;24035;48.900;9.188;2022-12-07T00:38:29;6.82;;;3.53;;
38238;SDS011;24035;48.900;9.188;2022-12-07T00:41:15;9.35;;;3.25;;
38238;SDS011;24035;48.900;9.188;2022-12-07T00:43:44;7.57;;;3.20;;
38238;SDS011;24035;48.900;9.188;2022-12-07T00:46:11;6.43;;;3.45;;
38238;SDS011;24035;48.900;9.188;2022-12-07T00:48:38;6.28;;;3.15;;
38238;SDS011;24035;48.900;9.188;2022-12-07T00:51:04;8.32;;;3.80;;
38238;SDS011;24035;48.900;9.188;2022-12-07T00:53:31;6.72;;;3.10;;
38238;SDS011;24035;48.900;9.188;2022-12-07T00:56:04;7.20;;;2.80;;
38238;SDS011;24035;48.900;9.188;2022-12-07T00:58:37;7.10;;;3.47;;
38238;SDS011;24035;48.900;9.188;2022-12-07T01:01:04;6.45;;;2.95;;
38238;SDS011;24035;48.900;9.188;2022-12-07T01:03:32;6.20;;;3.10;;
38238;SDS011;24035;48.900;9.188;2022-12-07T01:05:58;6.20;;;3.30;;
38238;SDS011;24035;48.900;9.188;2022-12-07T01:08:24;5.85;;;2.97;;
38238;SDS011;24035;48.900;9.188;2022-12-07T01:11:25;6.85;;;3.67;;
38238;SDS011;24035;48.900;9.188;2022-12-07T01:13:44;9.30;;;3.60;;
38238;SDS011;24035;48.900;9.188;2022-12-07T01:16:11;8.05;;;4.13;;
38238;SDS011;24035;48.900;9.188;2022-12-07T01:18:39;6.05;;;3.38;;
38238;SDS011;24035;48.900;9.188;2022-12-07T01:21:06;7.35;;;3.60;;
38238;SDS011;24035;48.900;9.188;2022-12-07T01:23:33;6.90;;;3.30;;
38238;SDS011;24035;48.900;9.188;2022-12-07T01:26:04;8.82;;;3.92;;
38238;SDS011;24035;48.900;9.188;2022-12-07T01:28:37;7.15;;;3.70;;
38238;SDS011;24035;48.900;9.188;2022-12-07T01:33:35;6.95;;;3.42;;
38238;SDS011;24035;48.900;9.188;2022-12-07T01:36:05;7.85;;;3.22;;
38238;SDS011;24035;48.900;9.188;2022-12-07T01:38:40;7.68;;;3.53;;
38238;SDS011;24035;48.900;9.188;2022-12-07T01:41:06;7.10;;;3.38;;
38238;SDS011;24035;48.900;9.188;2022-12-07T01:43:32;8.25;;;3.80;;
38238;SDS011;24035;48.900;9.188;2022-12-07T01:45:59;9.02;;;3.35;;
38238;SDS011;24035;48.900;9.188;2022-12-07T01:48:29;6.15;;;3.15;;
38238;SDS011;24035;48.900;9.188;2022-12-07T01:51:01;7.63;;;3.83;;
38238;SDS011;24035;48.900;9.188;2022-12-07T01:53:34;7.28;;;3.25;;
38238;SDS011;24035;48.900;9.188;2022-12-07T01:56:03;7.97;;;3.75;;
38238;SDS011;24035;48.900;9.188;2022-12-07T01:58:30;7.88;;;3.78;;
38238;SDS011;24035;48.900;9.188;2022-12-07T02:00:56;7.57;;;3.65;;
38238;SDS011;24035;48.900;9.188;2022-12-07T02:03:24;7.60;;;3.47;;
38238;SDS011;24035;48.900;9.188;2022-12-07T02:05:56;8.73;;;4.03;;
38238;SDS011;24035;48.900;9.188;2022-12-07T02:08:24;6.50;;;3.13;;
38238;SDS011;24035;48.900;9.188;2022-12-07T02:10:50;6.72;;;2.58;;
38238;SDS011;24035;48.900;9.188;2022-12-07T02:13:16;6.75;;;3.70;;
38238;SDS011;24035;48.900;9.188;2022-12-07T02:21:13;8.20;;;3.80;;
38238;SDS011;24035;48.900;9.188;2022-12-07T02:27:14;5.88;;;3.13;;
38238;SDS011;24035;48.900;9.188;2022-12-07T02:30:20;7.75;;;3.30;;
38238;SDS011;24035;48.900;9.188;2022-12-07T02:35:28;6.95;;;3.28;;
38238;SDS011;24035;48.900;9.188;2022-12-07T02:38:12;7.88;;;3.45;;
38238;SDS011;24035;48.900;9.188;2022-12-07T02:41:00;6.43;;;3.37;;
38238;SDS011;24035;48.900;9.188;2022-12-07T02:43:33;9.80;;;3.90;;
38238;SDS011;24035;48.900;9.188;2022-12-07T02:46:03;6.93;;;3.22;;
38238;SDS011;24035;48.900;9.188;2022-12-07T02:51:02;6.43;;;3.50;;
38238;SDS011;24035;48.900;9.188;2022-12-07T02:53:31;6.65;;;3.20;;
38238;SDS011;24035;48.900;9.188;2022-12-07T02:56:24;6.43;;;3.50;;
38238;SDS011;24035;48.900;9.188;2022-12-07T03:18:28;6.60;;;2.85;;
38238;SDS011;24035;48.900;9.188;2022-12-07T03:20:57;7.70;;;3.50;;
38238;SDS011;24035;48.900;9.188;2022-12-07T03:23:25;5.95;;;2.83;;
38238;SDS011;24035;48.900;9.188;2022-12-07T03:25:54;6.32;;;3.00;;
38238;SDS011;24035;48.900;9.188;2022-12-07T03:28:24;6.70;;;3.50;;
38238;SDS011;24035;48.900;9.188;2022-12-07T03:30:57;7.67;;;3.13;;
38238;SDS011;24035;48.900;9.188;2022-12-07T03:33:36;11.90;;;3.58;;
38238;SDS011;24035;48.900;9.188;2022-12-07T03:36:11;6.05;;;2.88;;
38238;SDS011;24035;48.900;9.188;2022-12-07T03:39:03;6.13;;;2.85;;
38238;SDS011;24035;48.900;9.188;2022-12-07T03:41:36;6.65;;;3.03;;
38238;SDS011;24035;48.900;9.188;2022-12-07T03:44:03;6.40;;;3.20;;
38238;SDS011;24035;48.900;9.188;2022-12-07T03:52:08;6.32;;;3.35;;
38238;SDS011;24035;48.900;9.188;2022-12-07T03:57:27;6.90;;;3.78;;
38238;SDS011;24035;48.900;9.188;2022-12-07T03:59:55;6.00;;;2.75;;
38238;SDS011;24035;48.900;9.188;2022-12-07T04:02:23;7.22;;;3.45;;
38238;SDS011;24035;48.900;9.188;2022-12-07T04:04:51;9.10;;;3.58;;
38238;SDS011;24035;48.900;9.188;2022-12-07T04:07:17;7.40;;;3.58;;
38238;SDS011;24035;48.900;9.188;2022-12-07T04:09:43;7.70;;;3.75;;
38238;SDS011;24035;48.900;9.188;2022-12-07T04:12:08;7.60;;;3.63;;
38238;SDS011;24035;48.900;9.188;2022-12-07T04:14:34;7.88;;;4.05;;
38238;SDS011;24035;48.900;9.188;2022-12-07T04:17:00;8.48;;;3.90;;
38238;SDS011;24035;48.900;9.188;2022-12-07T04:19:27;7.80;;;3.45;;
38238;SDS011;24035;48.900;9.188;2022-12-07T04:21:55;9.15;;;4.05;;
38238;SDS011;24035;48.900;9.188;2022-12-07T04:24:22;8.13;;;4.40;;
38238;SDS011;24035;48.900;9.188;2022-12-07T04:26:48;7.03;;;3.40;;
38238;SDS011;24035;48.900;9.188;2022-12-07T04:29:14;8.05;;;4.15;;
38238;SDS011;24035;48.900;9.188;2022-12-07T04:31:41;10.50;;;3.75;;
38238;SDS011;24035;48.900;9.188;2022-12-07T04:34:07;8.93;;;4.00;;
38238;SDS011;24035;48.900;9.188;2022-12-07T04:36:33;9.40;;;4.28;;
38238;SDS011;24035;48.900;9.188;2022-12-07T04:38:59;8.65;;;4.20;;
38238;SDS011;24035;48.900;9.188;2022-12-07T04:41:26;8.57;;;4.10;;
38238;SDS011;24035;48.900;9.188;2022-12-07T04:43:54;9.20;;;3.83;;
38238;SDS011;24035;48.900;9.188;2022-12-07T04:46:29;9.60;;;4.35;;
38238;SDS011;24035;48.900;9.188;2022-12-07T04:48:56;8.57;;;4.20;;
38238;SDS011;24035;48.900;9.188;2022-12-07T04:51:26;8.63;;;3.92;;
38238;SDS011;24035;48.900;9.188;2022-12-07T04:53:53;9.98;;;4.40;;
38238;SDS011;24035;48.900;9.188;2022-12-07T04:56:19;8.90;;;4.18;;
38238;SDS011;24035;48.900;9.188;2022-12-07T04:58:45;9.95;;;4.50;;
38238;SDS011;24035;48.900;9.188;2022-12-07T05:01:13;6.68;;;3.45;;
38238;SDS011;24035;48.900;9.188;2022-12-07T05:03:39;9.27;;;3.60;;
38238;SDS011;24035;48.900;9.188;2022-12-07T05:06:05;7.70;;;3.53;;
38238;SDS011;24035;48.900;9.188;2022-12-07T05:08:32;6.05;;;3.53;;
38238;SDS011;24035;48.900;9.188;2022-12-07T05:10:58;8.40;;;3.78;;
38238;SDS011;24035;48.900;9.188;2022-12-07T05:13:24;8.48;;;3.83;;
38238;SDS011;24035;48.900;9.188;2022-12-07T05:15:50;11.10;;;3.58;;
38238;SDS011;24035;48.900;9.188;2022-12-07T05:18:15;8.05;;;3.35;;
38238;SDS011;24035;48.900;9.188;2022-12-07T05:20:42;8.57;;;3.72;;
38238;SDS011;24035;48.900;9.188;2022-12-07T05:23:07;9.93;;;3.88;;
38238;SDS011;24035;48.900;9.188;2022-12-07T05:25:33;8.27;;;4.20;;
38238;SDS011;24035;48.900;9.188;2022-12-07T05:27:59;7.43;;;3.20;;
38238;SDS011;24035;48.900;9.188;2022-12-07T05:30:25;7.00;;;3.65;;
38238;SDS011;24035;48.900;9.188;2022-12-07T05:32:51;7.18;;;3.83;;
38238;SDS011;24035;48.900;9.188;2022-12-07T05:35:17;9.95;;;4.13;;
38238;SDS011;24035;48.900;9.188;2022-12-07T05:37:44;7.25;;;3.33;;
38238;SDS011;24035;48.900;9.188;2022-12-07T05:40:10;7.30;;;3.42;;
38238;SDS011;24035;48.900;9.188;2022-12-07T05:42:37;8.02;;;4.25;;
38238;SDS011;24035;48.900;9.188;2022-12-07T05:45:03;8.20;;;3.97;;
38238;SDS011;24035;48.900;9.188;2022-12-07T05:47:29;9.25;;;4.30;;
38238;SDS011;24035;48.900;9.188;2022-12-07T05:49:56;9.52;;;3.78;;
38238;SDS011;24035;48.900;9.188;2022-12-07T05:52:21;8.63;;;3.47;;
38238;SDS011;24035;48.900;9.188;2022-12-07T05:54:48;8.75;;;3.58;;
38238;SDS011;24035;48.900;9.188;2022-12-07T05:57:13;8.40;;;3.53;;
38238;SDS011;24035;48.900;9.188;2022-12-07T05:59:39;8.27;;;3.60;;
38238;SDS011;24035;48.900;9.188;2022-12-07T06:04:33;8.07;;;3.67;;
38238;SDS011;24035;48.900;9.188;2022-12-07T06:07:01;9.90;;;3.95;;
38238;SDS011;24035;48.900;9.188;2022-12-07T06:09:27;8.45;;;3.97;;
38238;SDS011;24035;48.900;9.188;2022-12-07T06:11:54;10.02;;;4.28;;
38238;SDS011;24035;48.900;9.188;2022-12-07T06:14:40;8.25;;;3.78;;
38238;SDS011;24035;48.900;9.188;2022-12-07T06:17:06;8.30;;;4.07;;
38238;SDS011;24035;48.900;9.188;2022-12-07T06:19:33;8.02;;;3.78;;
38238;SDS011;24035;48.900;9.188;2022-12-07T06:22:01;9.90;;;3.75;;
38238;SDS011;24035;48.900;9.188;2022-12-07T06:24:29;7.05;;;3.67;;
38238;SDS011;24035;48.900;9.188;2022-12-07T06:26:56;8.38;;;3.80;;
38238;SDS011;24035;48.900;9.188;2022-12-07T06:29:22;8.18;;;3.67;;
38238;SDS011;24035;48.900;9.188;2022-12-07T06:31:47;7.32;;;3.75;;
38238;SDS011;24035;48.900;9.188;2022-12-07T06:34:14;8.07;;;3.10;;
38238;SDS011;24035;48.900;9.188;2022-12-07T06:36:42;6.80;;;3.08;;
38238;SDS011;24035;48.900;9.188;2022-12-07T06:39:09;7.68;;;3.75;;
38238;SDS011;24035;48.900;9.188;2022-12-07T06:41:38;7.82;;;3.08;;
38238;SDS011;24035;48.900;9.188;2022-12-07T06:44:05;6.47;;;3.05;;
38238;SDS011;24035;48.900;9.188;2022-12-07T06:46:31;7.55;;;3.42;;
38238;SDS011;24035;48.900;9.188;2022-12-07T06:48:57;7.32;;;3.20;;
38238;SDS011;24035;48.900;9.188;2022-12-07T06:51:23;7.45;;;3.30;;
38238;SDS011;24035;48.900;9.188;2022-12-07T06:53:49;6.43;;;2.90;;
38238;SDS011;24035;48.900;9.188;2022-12-07T06:56:14;8.13;;;3.40;;
38238;SDS011;24035;48.900;9.188;2022-12-07T06:58:40;7.70;;;2.97;;
38238;SDS011;24035;48.900;9.188;2022-12-07T07:01:13;6.43;;;2.90;;
38238;SDS011;24035;48.900;9.188;2022-12-07T07:03:40;6.40;;;2.90;;
38238;SDS011;24035;48.900;9.188;2022-12-07T07:06:06;5.30;;;2.45;;
38238;SDS011;24035;48.900;9.188;2022-12-07T07:08:33;8.82;;;2.70;;
38238;SDS011;24035;48.900;9.188;2022-12-07T07:10:59;6.35;;;2.78;;
38238;SDS011;24035;48.900;9.188;2022-12-07T07:13:25;6.28;;;3.33;;
38238;SDS011;24035;48.900;9.188;2022-12-07T07:15:51;6.97;;;2.80;;
38238;SDS011;24035;48.900;9.188;2022-12-07T07:18:17;7.40;;;2.85;;
38238;SDS011;24035;48.900;9.188;2022-12-07T07:20:43;6.55;;;2.75;;
38238;SDS011;24035;48.900;9.188;2022-12-07T07:23:08;7.65;;;2.83;;
38238;SDS011;24035;48.900;9.188;2022-12-07T07:25:34;12.82;;;2.97;;
38238;SDS011;24035;48.900;9.188;2022-12-07T07:28:00;5.57;;;2.63;;
38238;SDS011;24035;48.900;9.188;2022-12-07T07:30:26;5.50;;;2.45;;
38238;SDS011;24035;48.900;9.188;2022-12-07T07:32:55;5.90;;;2.78;;
38238;SDS011;24035;48.900;9.188;2022-12-07T07:35:22;7.20;;;2.92;;
38238;SDS011;24035;48.900;9.188;2022-12-07T07:37:47;6.00;;;2.88;;
38238;SDS011;24035;48.900;9.188;2022-12-07T07:40:15;7.13;;;2.78;;
38238;SDS011;24035;48.900;9.188;2022-12-07T07:42:41;8.15;;;2.75;;
38238;SDS011;24035;48.900;9.188;2022-12-07T07:45:07;6.18;;;2.88;;
38238;SDS011;24035;48.900;9.188;2022-12-07T07:47:33;6.70;;;2.90;;
38238;SDS011;24035;48.900;9.188;2022-12-07T07:49:59;6.18;;;2.90;;
38238;SDS011;24035;48.900;9.188;2022-12-07T07:52:25;6.53;;;2.85;;
38238;SDS011;24035;48.900;9.188;2022-12-07T07:54:51;8.98;;;3.63;;
38238;SDS011;24035;48.900;9.188;2022-12-07T07:57:17;7.53;;;3.25;;
38238;SDS011;24035;48.900;9.188;2022-12-07T07:59:43;10.30;;;3.35;;
38238;SDS011;24035;48.900;9.188;2022-12-07T08:02:11;8.52;;;3.05;;
38238;SDS011;24035;48.900;9.188;2022-12-07T08:04:41;6.38;;;3.15;;
38238;SDS011;24035;48.900;9.188;2022-12-07T08:07:06;4.78;;;2.35;;
38238;SDS011;24035;48.900;9.188;2022-12-07T08:09:32;8.02;;;3.28;;
38238;SDS011;24035;48.900;9.188;2022-12-07T08:12:01;7.90;;;3.03;;
38238;SDS011;24035;48.900;9.188;2022-12-07T08:14:26;8.10;;;2.70;;
38238;SDS011;24035;48.900;9.188;2022-12-07T08:16:53;7.20;;;2.60;;
38238;SDS011;24035;48.900;9.188;2022-12-07T08:19:20;6.68;;;2.80;;
38238;SDS011;24035;48.900;9.188;2022-12-07T08:21:45;6.35;;;2.50;;
38238;SDS011;24035;48.900;9.188;2022-12-07T08:24:11;5.88;;;2.90;;
38238;SDS011;24035;48.900;9.188;2022-12-07T08:26:37;6.50;;;2.78;;
38238;SDS011;24035;48.900;9.188;2022-12-07T08:29:03;6.85;;;2.92;;
38238;SDS011;24035;48.900;9.188;2022-12-07T08:31:29;6.40;;;2.90;;
38238;SDS011;24035;48.900;9.188;2022-12-07T08:33:55;6.82;;;2.47;;
38238;SDS011;24035;48.900;9.188;2022-12-07T08:36:22;7.57;;;2.67;;
38238;SDS011;24035;48.900;9.188;2022-12-07T08:38:48;6.25;;;2.67;;
38238;SDS011;24035;48.900;9.188;2022-12-07T08:41:14;7.15;;;3.00;;
38238;SDS011;24035;48.900;9.188;2022-12-07T08:43:40;7.90;;;2.80;;
38238;SDS011;24035;48.900;9.188;2022-12-07T08:46:08;5.35;;;2.40;;
38238;SDS011;24035;48.900;9.188;2022-12-07T08:48:35;6.38;;;2.88;;
38238;SDS011;24035;48.900;9.188;2022-12-07T08:51:04;7.93;;;2.33;;
38238;SDS011;24035;48.900;9.188;2022-12-07T08:53:30;5.97;;;2.33;;
38238;SDS011;24035;48.900;9.188;2022-12-07T08:55:56;5.65;;;2.15;;
38238;SDS011;24035;48.900;9.188;2022-12-07T08:58:23;5.43;;;2.42;;
38238;SDS011;24035;48.900;9.188;2022-12-07T09:00:49;6.45;;;2.35;;
38238;SDS011;24035;48.900;9.188;2022-12-07T09:03:14;4.53;;;1.80;;
38238;SDS011;24035;48.900;9.188;2022-12-07T09:05:40;6.15;;;2.15;;
38238;SDS011;24035;48.900;9.188;2022-12-07T09:08:06;6.57;;;1.92;;
38238;SDS011;24035;48.900;9.188;2022-12-07T09:10:32;6.18;;;2.33;;
38238;SDS011;24035;48.900;9.188;2022-12-07T09:12:58;7.07;;;2.28;;
38238;SDS011;24035;48.900;9.188;2022-12-07T09:15:27;4.47;;;2.03;;
38238;SDS011;24035;48.900;9.188;2022-12-07T09:17:53;4.82;;;1.65;;
38238;SDS011;24035;48.900;9.188;2022-12-07T09:20:19;5.57;;;2.10;;
38238;SDS011;24035;48.900;9.188;2022-12-07T09:22:46;5.18;;;1.90;;
38238;SDS011;24035;48.900;9.188;2022-12-07T09:25:12;4.93;;;1.90;;
38238;SDS011;24035;48.900;9.188;2022-12-07T09:27:38;3.50;;;1.48;;
38238;SDS011;24035;48.900;9.188;2022-12-07T09:30:05;4.22;;;1.63;;
38238;SDS011;24035;48.900;9.188;2022-12-07T09:32:31;6.10;;;2.03;;
38238;SDS011;24035;48.900;9.188;2022-12-07T09:34:57;4.40;;;1.60;;
38238;SDS011;24035;48.900;9.188;2022-12-07T09:37:22;4.15;;;1.75;;
38238;SDS011;24035;48.900;9.188;2022-12-07T09:39:48;4.57;;;1.80;;
38238;SDS011;24035;48.900;9.188;2022-12-07T09:42:23;5.47;;;2.20;;
38238;SDS011;24035;48.900;9.188;2022-12-07T09:44:51;4.25;;;1.73;;
38238;SDS011;24035;48.900;9.188;2022-12-07T09:47:17;5.20;;;2.10;;
38238;SDS011;24035;48.900;9.188;2022-12-07T09:49:42;5.90;;;2.20;;
38238;SDS011;24035;48.900;9.188;2022-12-07T09:54:35;5.95;;;2.03;;
38238;SDS011;24035;48.900;9.188;2022-12-07T09:57:04;6.38;;;2.15;;
38238;SDS011;24035;48.900;9.188;2022-12-07T09:59:30;5.45;;;2.28;;
38238;SDS011;24035;48.900;9.188;2022-12-07T10:01:56;5.78;;;2.22;;
38238;SDS011;24035;48.900;9.188;2022-12-07T10:04:48;5.18;;;2.10;;
38238;SDS011;24035;48.900;9.188;2022-12-07T10:07:14;5.38;;;2.30;;
38238;SDS011;24035;48.900;9.188;2022-12-07T10:09:39;5.57;;;2.30;;
38238;SDS011;24035;48.900;9.188;2022-12-07T10:12:06;4.97;;;2.10;;
38238;SDS011;24035;48.900;9.188;2022-12-07T10:14:35;6.80;;;2.00;;
38238;SDS011;24035;48.900;9.188;2022-12-07T10:17:47;4.95;;;2.00;;
38238;SDS011;24035;48.900;9.188;2022-12-07T10:20:13;7.82;;;2.75;;
38238;SDS011;24035;48.900;9.188;2022-12-07T10:22:55;4.65;;;1.90;;
38238;SDS011;24035;48.900;9.188;2022-12-07T10:25:27;5.03;;;1.52;;
38238;SDS011;24035;48.900;9.188;2022-12-07T10:30:33;5.53;;;1.23;;
38238;SDS011;24035;48.900;9.188;2022-12-07T10:35:54;4.03;;;1.23;;
38238;SDS011;24035;48.900;9.188;2022-12-07T10:38:19;3.38;;;1.38;;
38238;SDS011;24035;48.900;9.188;2022-12-07T10:40:45;4.50;;;1.52;;
38238;SDS011;24035;48.900;9.188;2022-12-07T10:46:17;4.22;;;1.73;;
38238;SDS011;24035;48.900;9.188;2022-12-07T10:48:51;4.20;;;1.58;;
38238;SDS011;24035;48.900;9.188;2022-12-07T10:54:33;4.85;;;1.75;;
38238;SDS011;24035;48.900;9.188;2022-12-07T11:03:04;5.95;;;2.05;;
38238;SDS011;24035;48.900;9.188;2022-12-07T11:05:45;5.50;;;2.22;;
38238;SDS011;24035;48.900;9.188;2022-12-07T11:13:56;5.13;;;1.80;;
38238;SDS011;24035;48.900;9.188;2022-12-07T11:16:55;5.82;;;2.00;;
38238;SDS011;24035;48.900;9.188;2022-12-07T11:19:46;6.85;;;1.90;;
38238;SDS011;24035;48.900;9.188;2022-12-07T11:25:17;7.72;;;2.75;;
38238;SDS011;24035;48.900;9.188;2022-12-07T11:33:41;7.10;;;2.38;;
38238;SDS011;24035;48.900;9.188;2022-12-07T11:39:16;7.15;;;3.10;;
38238;SDS011;24035;48.900;9.188;2022-12-07T11:41:44;8.35;;;2.38;;
38238;SDS011;24035;48.900;9.188;2022-12-07T11:46:50;6.53;;;2.90;;
38238;SDS011;24035;48.900;9.188;2022-12-07T11:55:14;6.97;;;3.10;;
38238;SDS011;24035;48.900;9.188;2022-12-07T11:58:10;5.82;;;2.78;;
38238;SDS011;24035;48.900;9.188;2022-12-07T12:00:46;8.40;;;3.20;;
38238;SDS011;24035;48.900;9.188;2022-12-07T12:03:17;5.78;;;2.83;;
38238;SDS011;24035;48.900;9.188;2022-12-07T12:05:55;6.97;;;2.58;;
38238;SDS011;24035;48.900;9.188;2022-12-07T12:08:24;9.15;;;2.58;;
38238;SDS011;24035;48.900;9.188;2022-12-07T12:16:44;6.40;;;3.08;;
38238;SDS011;24035;48.900;9.188;2022-12-07T12:19:33;6.65;;;2.67;;
38238;SDS011;24035;48.900;9.188;2022-12-07T12:22:20;9.82;;;2.65;;
38238;SDS011;24035;48.900;9.188;2022-12-07T12:24:53;8.50;;;2.93;;
38238;SDS011;24035;48.900;9.188;2022-12-07T12:29:55;8.80;;;3.45;;
38238;SDS011;24035;48.900;9.188;2022-12-07T12:32:34;7.60;;;3.15;;
38238;SDS011;24035;48.900;9.188;2022-12-07T12:37:56;7.85;;;3.03;;
38238;SDS011;24035;48.900;9.188;2022-12-07T12:40:42;6.80;;;2.83;;
38238;SDS011;24035;48.900;9.188;2022-12-07T12:48:54;9.10;;;2.80;;
38238;SDS011;24035;48.900;9.188;2022-12-07T12:51:39;5.70;;;2.55;;
38238;SDS011;24035;48.900;9.188;2022-12-07T12:54:22;6.35;;;2.80;;
38238;SDS011;24035;48.900;9.188;2022-12-07T13:04:56;7.38;;;3.08;;
38238;SDS011;24035;48.900;9.188;2022-12-07T13:12:59;6.30;;;3.30;;
38238;SDS011;24035;48.900;9.188;2022-12-07T13:15:55;8.90;;;3.42;;
38238;SDS011;24035;48.900;9.188;2022-12-07T13:18:40;7.20;;;3.05;;
38238;SDS011;24035;48.900;9.188;2022-12-07T13:23:38;7.55;;;3.42;;
38238;SDS011;24035;48.900;9.188;2022-12-07T13:31:35;9.18;;;4.10;;
38238;SDS011;24035;48.900;9.188;2022-12-07T13:36:57;10.73;;;4.32;;
38238;SDS011;24035;48.900;9.188;2022-12-07T13:39:24;10.52;;;4.10;;
38238;SDS011;24035;48.900;9.188;2022-12-07T13:42:06;9.18;;;3.45;;
38238;SDS011;24035;48.900;9.188;2022-12-07T13:44:40;10.15;;;3.92;;
38238;SDS011;24035;48.900;9.188;2022-12-07T13:47:09;7.97;;;4.03;;
38238;SDS011;24035;48.900;9.188;2022-12-07T13:49:50;8.02;;;4.00;;
38238;SDS011;24035;48.900;9.188;2022-12-07T13:52:22;10.57;;;4.68;;
38238;SDS011;24035;48.900;9.188;2022-12-07T13:57:25;12.93;;;4.27;;
38238;SDS011;24035;48.900;9.188;2022-12-07T13:59:52;11.02;;;4.88;;
38238;SDS011;24035;48.900;9.188;2022-12-07T14:02:26;12.73;;;5.10;;
38238;SDS011;24035;48.900;9.188;2022-12-07T14:07:34;17.95;;;6.07;;
38238;SDS011;24035;48.900;9.188;2022-12-07T14:10:04;9.20;;;4.05;;
38238;SDS011;24035;48.900;9.188;2022-12-07T14:12:32;13.10;;;4.97;;
38238;SDS011;24035;48.900;9.188;2022-12-07T14:15:00;12.98;;;5.75;;
38238;SDS011;24035;48.900;9.188;2022-12-07T14:17:27;10.55;;;4.60;;
38238;SDS011;24035;48.900;9.188;2022-12-07T14:19:57;13.13;;;5.43;;
38238;SDS011;24035;48.900;9.188;2022-12-07T14:25:18;10.93;;;5.03;;
38238;SDS011;24035;48.900;9.188;2022-12-07T14:30:21;13.32;;;5.25;;
38238;SDS011;24035;48.900;9.188;2022-12-07T14:32:53;12.52;;;6.10;;
38238;SDS011;24035;48.900;9.188;2022-12-07T14:35:22;13.48;;;5.47;;
38238;SDS011;24035;48.900;9.188;2022-12-07T14:37:48;15.57;;;7.05;;
38238;SDS011;24035;48.900;9.188;2022-12-07T14:40:16;12.32;;;5.50;;
38238;SDS011;24035;48.900;9.188;2022-12-07T14:42:44;10.80;;;4.65;;
38238;SDS011;24035;48.900;9.188;2022-12-07T14:45:16;13.50;;;5.25;;
38238;SDS011;24035;48.900;9.188;2022-12-07T14:47:44;10.20;;;4.70;;
38238;SDS011;24035;48.900;9.188;2022-12-07T14:50:14;10.65;;;4.45;;
38238;SDS011;24035;48.900;9.188;2022-12-07T14:52:43;10.52;;;4.75;;
38238;SDS011;24035;48.900;9.188;2022-12-07T14:55:24;10.88;;;4.15;;
38238;SDS011;24035;48.900;9.188;2022-12-07T14:57:51;8.50;;;4.15;;
38238;SDS011;24035;48.900;9.188;2022-12-07T15:00:19;10.15;;;3.65;;
38238;SDS011;24035;48.900;9.188;2022-12-07T15:02:46;11.30;;;4.68;;
38238;SDS011;24035;48.900;9.188;2022-12-07T15:05:13;8.98;;;4.40;;
38238;SDS011;24035;48.900;9.188;2022-12-07T15:07:39;10.07;;;5.07;;
38238;SDS011;24035;48.900;9.188;2022-12-07T15:10:06;10.38;;;4.88;;
38238;SDS011;24035;48.900;9.188;2022-12-07T15:12:41;7.20;;;3.45;;
38238;SDS011;24035;48.900;9.188;2022-12-07T15:15:07;8.13;;;4.28;;
38238;SDS011;24035;48.900;9.188;2022-12-07T15:17:33;7.72;;;3.50;;
38238;SDS011;24035;48.900;9.188;2022-12-07T15:19:59;8.07;;;3.25;;
38238;SDS011;24035;48.900;9.188;2022-12-07T15:22:24;7.97;;;3.45;;
38238;SDS011;24035;48.900;9.188;2022-12-07T15:24:50;9.23;;;3.83;;
38238;SDS011;24035;48.900;9.188;2022-12-07T15:27:16;7.70;;;3.90;;
38238;SDS011;24035;48.900;9.188;2022-12-07T15:29:41;13.55;;;4.43;;
38238;SDS011;24035;48.900;9.188;2022-12-07T15:32:07;9.13;;;4.40;;
38238;SDS011;24035;48.900;9.188;2022-12-07T15:34:34;9.88;;;4.93;;
38238;SDS011;24035;48.900;9.188;2022-12-07T15:36:59;13.35;;;5.50;;
38238;SDS011;24035;48.900;9.188;2022-12-07T15:39:25;11.20;;;4.80;;
38238;SDS011;24035;48.900;9.188;2022-12-07T15:41:51;11.90;;;5.18;;
38238;SDS011;24035;48.900;9.188;2022-12-07T15:44:16;11.30;;;4.80;;
38238;SDS011;24035;48.900;9.188;2022-12-07T15:47:01;12.15;;;5.25;;
38238;SDS011;24035;48.900;9.188;2022-12-07T15:49:27;10.23;;;5.20;;
38238;SDS011;24035;48.900;9.188;2022-12-07T15:51:53;11.52;;;5.75;;
38238;SDS011;24035;48.900;9.188;2022-12-07T15:54:20;10.43;;;5.25;;
38238;SDS011;24035;48.900;9.188;2022-12-07T15:56:47;10.55;;;4.15;;
38238;SDS011;24035;48.900;9.188;2022-12-07T15:59:13;12.52;;;5.00;;
38238;SDS011;24035;48.900;9.188;2022-12-07T16:01:39;12.77;;;5.72;;
38238;SDS011;24035;48.900;9.188;2022-12-07T16:04:04;11.05;;;4.93;;
38238;SDS011;24035;48.900;9.188;2022-12-07T16:06:30;10.20;;;4.57;;
38238;SDS011;24035;48.900;9.188;2022-12-07T16:08:56;12.60;;;5.40;;
38238;SDS011;24035;48.900;9.188;2022-12-07T16:11:22;10.52;;;4.93;;
38238;SDS011;24035;48.900;9.188;2022-12-07T16:13:48;10.50;;;4.60;;
38238;SDS011;24035;48.900;9.188;2022-12-07T16:16:14;10.85;;;4.78;;
38238;SDS011;24035;48.900;9.188;2022-12-07T16:18:41;13.82;;;5.13;;
38238;SDS011;24035;48.900;9.188;2022-12-07T16:21:08;11.15;;;5.35;;
38238;SDS011;24035;48.900;9.188;2022-12-07T16:23:34;10.43;;;3.80;;
38238;SDS011;24035;48.900;9.188;2022-12-07T16:26:11;11.25;;;5.18;;
38238;SDS011;24035;48.900;9.188;2022-12-07T16:28:41;9.95;;;4.10;;
38238;SDS011;24035;48.900;9.188;2022-12-07T16:31:08;10.32;;;5.18;;
38238;SDS011;24035;48.900;9.188;2022-12-07T16:33:39;12.30;;;5.45;;
38238;SDS011;24035;48.900;9.188;2022-12-07T16:36:06;10.48;;;4.43;;
38238;SDS011;24035;48.900;9.188;2022-12-07T16:38:33;10.82;;;5.38;;
38238;SDS011;24035;48.900;9.188;2022-12-07T16:41:00;9.85;;;4.80;;
38238;SDS011;24035;48.900;9.188;2022-12-07T16:43:26;11.13;;;4.88;;
38238;SDS011;24035;48.900;9.188;2022-12-07T16:45:52;10.95;;;4.68;;
38238;SDS011;24035;48.900;9.188;2022-12-07T16:48:18;10.98;;;4.97;;
38238;SDS011;24035;48.900;9.188;2022-12-07T16:50:44;11.25;;;4.82;;
38238;SDS011;24035;48.900;9.188;2022-12-07T16:53:11;12.90;;;5.80;;
38238;SDS011;24035;48.900;9.188;2022-12-07T16:55:38;11.50;;;5.43;;
38238;SDS011;24035;48.900;9.188;2022-12-07T16:58:04;10.38;;;5.00;;
38238;SDS011;24035;48.900;9.188;2022-12-07T17:00:31;10.85;;;4.82;;
38238;SDS011;24035;48.900;9.188;2022-12-07T17:02:57;12.07;;;5.47;;
38238;SDS011;24035;48.900;9.188;2022-12-07T17:05:22;16.63;;;6.57;;
38238;SDS011;24035;48.900;9.188;2022-12-07T17:07:49;9.82;;;5.13;;
38238;SDS011;24035;48.900;9.188;2022-12-07T17:10:15;10.35;;;4.60;;
38238;SDS011;24035;48.900;9.188;2022-12-07T17:12:41;8.63;;;3.92;;
38238;SDS011;24035;48.900;9.188;2022-12-07T17:15:07;12.32;;;5.00;;
38238;SDS011;24035;48.900;9.188;2022-12-07T17:17:44;13.90;;;5.65;;
38238;SDS011;24035;48.900;9.188;2022-12-07T17:20:11;9.15;;;4.20;;
38238;SDS011;24035;48.900;9.188;2022-12-07T17:22:37;12.60;;;5.15;;